Главная страница
METAR-TAF:

METAR-TAF

Аэропорты :

Рёрус, Норвегия

широта: 62-35N, долгота: 011-21E, высота над уровнем моря: 626 м

Текущие метеонаблюдения

Эта сводка был подготовлена 28 минут назад, в 10:20 UTC
Ветер 15 Узел от западно-северо-западный
Температура -1°C
Влажность 64%
Давление 1013 hPa
Видимость 10 км и более
Нет облачности ниже 1500 м, и нет кучево-дождевой облачности

METAR: ENRO 251020Z 30015KT CAVOK M01/M07 Q1013

Время: 11:48 (10:48 UTC)

Прогноз

Эта сводка был подготовлена 2 часа и 48 минут назад, в 08:00 UTC
Прогноз действительный с 25-го 09 UTC до 25-го 18 UTC
Ветер 12 Узел от северо-западный
Видимость 10 км и более
небольшая облачность на высоте 2000 фута, мощно-кучевые.
Рассеянная облачность на высоте 3000 фута
временами
С 25-го 13 UTC до 25-го 18 UTC
Видимость: 2000 м
небольшие ливневые снегопады

TAF: ENRO 250800Z 2509/2518 32012KT 9999 FEW020TCU BKN030 TEMPO 2513/2518 2000 -SHSN

Метеонаблюдения и прогнозы для более 4000 аэропортов (сводки METAR и TAF).

Имеющиеся станции представлены на карте желтыми и красными точками.

Чтобы увидеть название станции, наведите на нее мышь.

Затем щелкните, чтобы увидеть метеонаблюдения и метеопрогнозы.

Управление картой: чтобы увеличить масштаб, щелкните зеленые кнопки с черным крестиком; чтобы уменьшить масштаб, щелкните зеленую кнопку с тире; для просмотра соседних карт щелкайте зеленые стрелки.


METAR-TAF: